Time;durP1;ratioP1;P1;durP2;ratioP2;P2;SDS_P1;SDS_P2;PMS_P1;PMS_P2;Temp;Humidity;BMP_temperature;BMP_pressure;BME280_temperature;BME280_humidity;BME280_pressure;Samples;Min_cycle;Max_cycle;Signal;HPM_P1;HPM_P2
2023/05/11 00:01:36;;;;;;;1.40;1.40;;;10.60;99.90;;;;;;5057233;28;20309;-69
2023/05/11 00:04:03;;;;;;;1.40;1.40;;;10.60;99.90;;;;;;5060978;28;20214;-71
2023/05/11 00:06:31;;;;;;;1.50;1.40;;;10.60;99.90;;;;;;5061686;28;20289;-69
2023/05/11 00:08:57;;;;;;;1.42;1.33;;;10.60;99.90;;;;;;5059217;28;20288;-70
2023/05/11 00:11:26;;;;;;;1.77;1.35;;;10.60;99.90;;;;;;5059338;28;20289;-70
2023/05/11 00:13:53;;;;;;;1.30;1.30;;;10.50;99.90;;;;;;5057749;28;20246;-71
2023/05/11 00:16:20;;;;;;;2.28;1.38;;;10.50;99.90;;;;;;5059800;28;20297;-70
2023/05/11 00:18:47;;;;;;;1.30;1.30;;;10.50;99.90;;;;;;5061186;28;20198;-71
2023/05/11 00:21:14;;;;;;;1.25;1.25;;;10.50;99.90;;;;;;5063171;28;20222;-69
2023/05/11 00:23:41;;;;;;;1.15;1.15;;;10.50;99.90;;;;;;5062046;28;20218;-70
2023/05/11 00:26:08;;;;;;;1.27;1.27;;;10.50;99.90;;;;;;5062129;28;20267;-70
2023/05/11 00:28:36;;;;;;;2.10;1.67;;;10.50;99.90;;;;;;5061437;28;20237;-70
2023/05/11 00:31:03;;;;;;;1.45;1.45;;;10.50;99.90;;;;;;5059514;28;20729;-70
2023/05/11 00:33:30;;;;;;;1.60;1.50;;;10.40;99.90;;;;;;5061456;28;20233;-70
2023/05/11 00:35:57;;;;;;;1.52;1.30;;;10.40;99.90;;;;;;5062150;28;20234;-70
2023/05/11 00:38:24;;;;;;;1.45;1.45;;;10.40;99.90;;;;;;5058149;28;20706;-71
2023/05/11 00:40:51;;;;;;;1.40;1.40;;;10.40;99.90;;;;;;5058453;28;20227;-70
2023/05/11 00:43:18;;;;;;;1.30;1.30;;;10.30;99.90;;;;;;5063255;28;20309;-70
2023/05/11 00:45:48;;;;;;;1.27;1.27;;;10.30;99.90;;;;;;5062922;28;20194;-69
2023/05/11 00:48:15;;;;;;;1.38;1.38;;;10.30;99.90;;;;;;5060171;28;20198;-70
2023/05/11 00:50:42;;;;;;;1.33;1.23;;;10.30;99.90;;;;;;5062355;28;20213;-69
2023/05/11 00:53:10;;;;;;;1.17;1.17;;;10.30;99.90;;;;;;5058769;28;20281;-72
2023/05/11 00:55:38;;;;;;;1.40;1.40;;;10.30;99.90;;;;;;5062930;28;20220;-71
2023/05/11 00:58:05;;;;;;;1.25;1.25;;;10.40;99.90;;;;;;5060984;28;20198;-70
2023/05/11 01:00:32;;;;;;;1.73;1.38;;;10.40;99.90;;;;;;5063957;28;20197;-70
2023/05/11 01:03:02;;;;;;;1.23;1.23;;;10.40;99.90;;;;;;5062333;28;20705;-70
2023/05/11 01:05:36;;;;;;;1.23;1.23;;;10.40;99.90;;;;;;5059627;28;20301;-69
2023/05/11 01:08:11;;;;;;;1.13;1.13;;;10.40;99.90;;;;;;5064789;28;20257;-70
2023/05/11 01:10:44;;;;;;;1.33;1.33;;;10.40;99.90;;;;;;5063771;28;20233;-72
2023/05/11 01:13:19;;;;;;;1.35;1.33;;;10.40;99.90;;;;;;5063384;28;20294;-70
2023/05/11 01:15:51;;;;;;;1.90;1.50;;;10.40;99.90;;;;;;5067731;28;20213;-70
2023/05/11 01:18:26;;;;;;;1.48;1.48;;;10.40;99.90;;;;;;5068234;28;20240;-72
2023/05/11 01:20:58;;;;;;;1.55;1.52;;;10.40;99.90;;;;;;5062269;28;20217;-71
2023/05/11 01:23:54;;;;;;;1.50;1.40;;;10.40;99.90;;;;;;5063985;28;20275;-72
2023/05/11 01:26:35;;;;;;;1.25;1.20;;;10.40;99.90;;;;;;5057754;28;20252;-72
2023/05/11 01:29:21;;;;;;;1.67;1.58;;;10.40;99.90;;;;;;5060116;28;20768;-70
2023/05/11 01:31:50;;;;;;;1.20;1.20;;;10.40;99.90;;;;;;5056118;28;20285;-70
2023/05/11 01:34:19;;;;;;;1.50;1.50;;;10.40;99.90;;;;;;5060444;28;20638;-72
2023/05/11 01:36:52;;;;;;;1.30;1.30;;;10.40;99.90;;;;;;5058951;28;20241;-70
2023/05/11 01:39:30;;;;;;;1.50;1.40;;;10.40;99.90;;;;;;5060058;28;20295;-67
2023/05/11 01:42:01;;;;;;;1.30;1.30;;;10.40;99.90;;;;;;5060764;28;20313;-71
2023/05/11 01:44:31;;;;;;;1.33;1.33;;;10.40;99.90;;;;;;5064038;28;20218;-73
2023/05/11 01:47:02;;;;;;;1.10;1.10;;;10.40;99.90;;;;;;5059509;28;20226;-70
2023/05/11 01:49:31;;;;;;;1.20;1.20;;;10.40;99.90;;;;;;5060104;28;20265;-72
2023/05/11 01:51:59;;;;;;;1.10;1.10;;;10.40;99.90;;;;;;5060500;28;20686;-70
2023/05/11 01:54:28;;;;;;;1.30;1.30;;;10.40;99.90;;;;;;5063259;28;20314;-70
2023/05/11 01:56:57;;;;;;;1.05;1.05;;;10.40;99.90;;;;;;5062883;28;20194;-70
2023/05/11 01:59:26;;;;;;;1.30;1.30;;;10.40;99.90;;;;;;5065096;28;20625;-73
2023/05/11 02:01:53;;;;;;;1.13;1.13;;;10.40;99.90;;;;;;5062013;28;20297;-69
2023/05/11 02:04:23;;;;;;;1.02;1.02;;;10.30;99.90;;;;;;5064308;28;20600;-71
2023/05/11 02:06:52;;;;;;;1.20;1.20;;;10.30;99.90;;;;;;5061870;28;20219;-69
2023/05/11 02:09:21;;;;;;;1.55;1.50;;;10.30;99.90;;;;;;5063438;28;20203;-69
2023/05/11 02:11:49;;;;;;;1.25;1.23;;;10.30;99.90;;;;;;5064394;28;20623;-71
2023/05/11 02:14:18;;;;;;;1.40;1.40;;;10.20;99.90;;;;;;5064401;28;20225;-69
2023/05/11 02:16:48;;;;;;;1.50;1.50;;;10.20;99.90;;;;;;5062843;28;20202;-72
2023/05/11 02:19:17;;;;;;;1.20;1.20;;;10.20;99.90;;;;;;5062673;28;20202;-70
2023/05/11 02:21:47;;;;;;;1.67;1.60;;;10.20;99.90;;;;;;5061826;28;20379;-71
2023/05/11 02:24:15;;;;;;;1.40;1.30;;;10.20;99.90;;;;;;5060162;28;20250;-71
2023/05/11 02:26:42;;;;;;;1.38;1.38;;;10.20;99.90;;;;;;5064377;28;20205;-68
2023/05/11 02:29:09;;;;;;;1.30;1.30;;;10.20;99.90;;;;;;5063246;28;20738;-71
2023/05/11 02:31:42;;;;;;;1.30;1.30;;;10.20;99.90;;;;;;5059827;28;20230;-72
2023/05/11 02:34:19;;;;;;;1.50;1.40;;;10.10;99.90;;;;;;5064515;28;20554;-69
2023/05/11 02:36:48;;;;;;;1.38;1.30;;;10.10;99.90;;;;;;5062485;28;20233;-71
2023/05/11 02:39:20;;;;;;;1.20;1.20;;;10.10;99.90;;;;;;5064923;28;20210;-71
2023/05/11 02:41:53;;;;;;;1.40;1.40;;;10.00;99.90;;;;;;5060633;28;20275;-72
2023/05/11 02:44:22;;;;;;;1.38;1.38;;;10.00;99.90;;;;;;5062079;28;20359;-72
2023/05/11 02:46:52;;;;;;;1.55;1.50;;;10.00;99.90;;;;;;5062489;28;20518;-70
2023/05/11 02:49:22;;;;;;;1.17;1.17;;;9.90;99.90;;;;;;5061525;28;20225;-69
2023/05/11 02:51:52;;;;;;;1.10;1.10;;;9.90;99.90;;;;;;5064405;28;20584;-71
2023/05/11 02:54:20;;;;;;;1.65;1.58;;;9.90;99.90;;;;;;5062695;28;20306;-69
2023/05/11 02:56:47;;;;;;;1.38;1.38;;;9.90;99.90;;;;;;5061702;28;20304;-72
2023/05/11 02:59:15;;;;;;;1.33;1.33;;;9.90;99.90;;;;;;5064564;28;20252;-70
2023/05/11 03:01:43;;;;;;;1.42;1.40;;;9.90;99.90;;;;;;5064166;28;20245;-70
2023/05/11 03:04:09;;;;;;;1.60;1.30;;;9.90;99.90;;;;;;5062018;28;20836;-70
2023/05/11 03:06:37;;;;;;;1.30;1.30;;;9.90;99.90;;;;;;5060311;28;20730;-69
2023/05/11 03:09:06;;;;;;;1.40;1.30;;;9.90;99.90;;;;;;5063660;28;20295;-69
2023/05/11 03:11:33;;;;;;;1.30;1.30;;;9.80;99.90;;;;;;5061480;28;20194;-69
2023/05/11 03:14:01;;;;;;;1.40;1.40;;;9.80;99.90;;;;;;5063056;28;20222;-70
2023/05/11 03:16:29;;;;;;;1.35;1.35;;;9.80;99.90;;;;;;5058415;28;20605;-70
2023/05/11 03:18:57;;;;;;;1.35;1.35;;;9.80;99.90;;;;;;5059455;28;20283;-67
2023/05/11 03:21:26;;;;;;;2.15;1.33;;;9.80;99.90;;;;;;5059752;28;20309;-70
2023/05/11 03:23:54;;;;;;;1.58;1.52;;;9.80;99.90;;;;;;5063540;28;20627;-70
2023/05/11 03:26:27;;;;;;;1.35;1.25;;;9.80;99.90;;;;;;5055599;28;20267;-71
2023/05/11 03:28:55;;;;;;;1.50;1.50;;;9.80;99.90;;;;;;5059175;28;20222;-71
2023/05/11 03:31:22;;;;;;;1.40;1.30;;;9.80;99.90;;;;;;5059561;28;20289;-70
2023/05/11 03:33:49;;;;;;;1.17;1.17;;;9.80;99.90;;;;;;5064557;28;20226;-71
2023/05/11 03:36:18;;;;;;;1.63;1.27;;;9.80;99.90;;;;;;5062155;28;20232;-73
2023/05/11 03:38:46;;;;;;;1.50;1.42;;;9.80;99.90;;;;;;5061064;28;20901;-73
2023/05/11 03:41:17;;;;;;;1.23;1.23;;;9.90;99.90;;;;;;5061599;28;20238;-70
2023/05/11 03:43:47;;;;;;;1.73;1.48;;;9.90;99.90;;;;;;5057964;28;20218;-70
2023/05/11 03:46:15;;;;;;;1.45;1.45;;;10.00;99.90;;;;;;5059290;28;20214;-72
2023/05/11 03:48:43;;;;;;;1.45;1.45;;;10.10;99.90;;;;;;5062879;28;20231;-72
2023/05/11 03:51:10;;;;;;;1.23;1.23;;;10.10;99.90;;;;;;5060504;28;20209;-70
2023/05/11 03:53:38;;;;;;;1.38;1.38;;;10.00;99.90;;;;;;5061311;28;20313;-70
2023/05/11 03:56:06;;;;;;;1.20;1.20;;;10.00;99.90;;;;;;5061093;28;20297;-71
2023/05/11 03:58:37;;;;;;;1.20;1.20;;;10.00;99.90;;;;;;5062266;28;20206;-71
2023/05/11 04:01:08;;;;;;;1.20;1.20;;;10.00;99.90;;;;;;5062532;28;20296;-70
2023/05/11 04:03:35;;;;;;;1.10;1.10;;;10.10;99.90;;;;;;5064240;28;20218;-75
2023/05/11 04:06:02;;;;;;;1.30;1.30;;;10.10;99.90;;;;;;5059731;28;20202;-72
2023/05/11 04:08:29;;;;;;;1.80;1.70;;;10.00;99.90;;;;;;5061959;28;20238;-70
2023/05/11 04:10:56;;;;;;;2.03;1.92;;;10.00;99.90;;;;;;5060277;28;20569;-70
2023/05/11 04:13:23;;;;;;;2.15;1.90;;;9.90;99.90;;;;;;5060520;28;20242;-73
2023/05/11 04:15:50;;;;;;;2.15;1.75;;;9.90;99.90;;;;;;5059600;28;20226;-72
2023/05/11 04:18:18;;;;;;;1.83;1.73;;;9.90;99.90;;;;;;5058270;28;20600;-71
2023/05/11 04:20:45;;;;;;;1.50;1.50;;;9.90;99.90;;;;;;5063939;28;20248;-70
2023/05/11 04:23:12;;;;;;;1.70;1.60;;;10.00;99.90;;;;;;5062512;28;20641;-70
2023/05/11 04:25:39;;;;;;;1.40;1.40;;;10.00;99.90;;;;;;5057955;28;20277;-69
2023/05/11 04:28:06;;;;;;;1.40;1.40;;;10.00;99.90;;;;;;5060684;28;20311;-70
2023/05/11 04:30:33;;;;;;;1.50;1.50;;;10.00;99.90;;;;;;5058597;28;20285;-70
2023/05/11 04:32:59;;;;;;;1.52;1.52;;;10.00;99.90;;;;;;5061790;28;20214;-70
2023/05/11 04:35:28;;;;;;;1.23;1.23;;;10.00;99.90;;;;;;5058618;28;20708;-70
2023/05/11 04:37:55;;;;;;;1.33;1.25;;;10.00;99.90;;;;;;5062913;28;20522;-69
2023/05/11 04:40:22;;;;;;;1.95;1.30;;;9.90;99.90;;;;;;5055242;28;20230;-70
2023/05/11 04:42:48;;;;;;;1.23;1.23;;;9.90;99.90;;;;;;5057814;28;20310;-68
2023/05/11 04:45:16;;;;;;;1.23;1.23;;;9.90;99.90;;;;;;5060137;28;20209;-70
2023/05/11 04:47:42;;;;;;;1.20;1.20;;;9.90;99.90;;;;;;5060923;28;20612;-70
2023/05/11 04:50:10;;;;;;;1.30;1.30;;;9.90;99.90;;;;;;5059482;28;20248;-70
2023/05/11 04:52:38;;;;;;;1.33;1.30;;;9.90;99.90;;;;;;5061394;28;20238;-70
2023/05/11 04:55:06;;;;;;;1.25;1.25;;;9.90;99.90;;;;;;5059058;28;20248;-70
2023/05/11 04:57:33;;;;;;;1.33;1.20;;;9.90;99.90;;;;;;5057592;28;20229;-69
2023/05/11 05:00:00;;;;;;;1.48;1.48;;;9.90;99.90;;;;;;5059844;28;20696;-67
2023/05/11 05:02:27;;;;;;;1.20;1.20;;;9.90;99.90;;;;;;5060650;28;20222;-70
2023/05/11 05:04:54;;;;;;;1.58;1.58;;;9.90;99.90;;;;;;5060534;28;20562;-69
2023/05/11 05:07:21;;;;;;;1.30;1.30;;;9.90;99.90;;;;;;5054364;28;20301;-69
2023/05/11 05:09:49;;;;;;;1.55;1.55;;;9.90;99.90;;;;;;5060379;28;20321;-70
2023/05/11 05:12:16;;;;;;;1.20;1.20;;;9.90;99.90;;;;;;5059001;28;20230;-68
2023/05/11 05:14:43;;;;;;;1.50;1.50;;;9.90;99.90;;;;;;5058051;28;20202;-71
2023/05/11 05:17:10;;;;;;;1.33;1.33;;;9.90;99.90;;;;;;5061844;28;20198;-73
2023/05/11 05:19:37;;;;;;;1.27;1.27;;;9.90;99.90;;;;;;5066147;28;20825;-70
2023/05/11 05:22:04;;;;;;;1.40;1.30;;;9.90;99.90;;;;;;5059705;28;20506;-68
2023/05/11 05:24:31;;;;;;;1.13;1.13;;;9.80;99.90;;;;;;5065460;28;20234;-70
2023/05/11 05:26:59;;;;;;;1.17;1.17;;;9.80;99.90;;;;;;5063597;28;20226;-70
2023/05/11 05:29:26;;;;;;;1.35;1.35;;;9.80;99.90;;;;;;5065846;28;20260;-69
2023/05/11 05:31:53;;;;;;;1.65;1.55;;;9.80;99.90;;;;;;5063516;28;20674;-71
2023/05/11 05:34:20;;;;;;;1.20;1.20;;;9.80;99.90;;;;;;5063208;28;20253;-70
2023/05/11 05:36:47;;;;;;;1.20;1.20;;;9.80;99.90;;;;;;5063520;28;20644;-71
2023/05/11 05:39:14;;;;;;;1.25;1.25;;;9.90;99.90;;;;;;5062310;28;20781;-71
2023/05/11 05:41:41;;;;;;;1.40;1.40;;;9.80;99.90;;;;;;5065813;28;20233;-70
2023/05/11 05:44:09;;;;;;;1.27;1.27;;;9.90;99.90;;;;;;5060840;28;20218;-70
2023/05/11 05:46:36;;;;;;;1.40;1.30;;;9.90;99.90;;;;;;5063968;28;20202;-70
2023/05/11 05:49:03;;;;;;;1.30;1.30;;;9.90;99.90;;;;;;5059623;28;20685;-71
2023/05/11 05:51:31;;;;;;;1.25;1.25;;;9.90;99.90;;;;;;5064465;28;20268;-69
2023/05/11 05:53:58;;;;;;;1.10;1.10;;;9.80;99.90;;;;;;5063534;28;20294;-70
2023/05/11 05:56:25;;;;;;;1.35;1.33;;;9.80;99.90;;;;;;5063608;28;20260;-71
2023/05/11 05:58:52;;;;;;;1.30;1.30;;;9.80;99.90;;;;;;5058392;28;20293;-72
2023/05/11 06:01:21;;;;;;;1.05;1.05;;;9.80;99.90;;;;;;5062676;28;20234;-73
2023/05/11 06:03:47;;;;;;;1.30;1.30;;;9.80;99.90;;;;;;5062219;28;20306;-70
2023/05/11 06:06:14;;;;;;;1.00;1.00;;;9.80;99.90;;;;;;5060817;28;20259;-70
2023/05/11 06:08:42;;;;;;;1.25;1.25;;;9.90;99.90;;;;;;5061087;28;20289;-70
2023/05/11 06:11:09;;;;;;;1.10;1.10;;;10.00;99.90;;;;;;5059645;28;20289;-70
2023/05/11 06:13:36;;;;;;;1.20;1.20;;;10.00;99.90;;;;;;5060341;28;20264;-70
2023/05/11 06:16:03;;;;;;;1.10;1.10;;;10.00;99.90;;;;;;5058416;28;20799;-70
2023/05/11 06:18:31;;;;;;;1.20;1.20;;;10.00;99.90;;;;;;5061255;28;20198;-67
2023/05/11 06:20:59;;;;;;;1.33;1.33;;;10.00;99.90;;;;;;5063683;28;20933;-70
2023/05/11 06:23:26;;;;;;;1.45;1.45;;;10.00;99.90;;;;;;5059800;28;20246;-70
2023/05/11 06:25:53;;;;;;;1.33;1.33;;;10.00;99.90;;;;;;5059102;28;20230;-70
2023/05/11 06:28:23;;;;;;;1.65;1.65;;;10.10;99.90;;;;;;5059136;28;20241;-72
2023/05/11 06:30:50;;;;;;;1.33;1.33;;;10.10;99.90;;;;;;5062909;28;20707;-70
2023/05/11 06:33:17;;;;;;;1.23;1.23;;;10.10;99.90;;;;;;5058224;28;20303;-70
2023/05/11 06:35:45;;;;;;;1.38;1.30;;;10.10;99.90;;;;;;5059017;28;20260;-73
2023/05/11 06:38:12;;;;;;;1.40;1.40;;;10.10;99.90;;;;;;5059347;28;20230;-71
2023/05/11 06:40:39;;;;;;;1.30;1.30;;;10.10;99.90;;;;;;5060800;28;20206;-72
2023/05/11 06:43:06;;;;;;;1.40;1.40;;;10.20;99.90;;;;;;5059679;28;20242;-70
2023/05/11 06:45:32;;;;;;;1.20;1.20;;;10.20;99.90;;;;;;5060939;28;20202;-72
2023/05/11 06:47:59;;;;;;;1.25;1.25;;;10.20;99.90;;;;;;5060874;28;20298;-71
2023/05/11 06:50:26;;;;;;;1.23;1.23;;;10.30;99.90;;;;;;5057670;28;20659;-73
2023/05/11 06:52:55;;;;;;;1.23;1.23;;;10.30;99.90;;;;;;5060635;28;20271;-71
2023/05/11 06:55:22;;;;;;;1.48;1.30;;;10.30;99.90;;;;;;5058612;28;20198;-70
2023/05/11 06:57:49;;;;;;;1.30;1.30;;;10.30;99.90;;;;;;5059445;28;20230;-70
2023/05/11 07:00:16;;;;;;;1.20;1.20;;;10.30;99.90;;;;;;5055611;28;20198;-70
2023/05/11 07:02:43;;;;;;;1.38;1.38;;;10.40;99.90;;;;;;5059368;28;20305;-70
2023/05/11 07:05:11;;;;;;;1.27;1.27;;;10.30;99.90;;;;;;5059428;28;21268;-72
2023/05/11 07:07:38;;;;;;;1.10;1.10;;;10.30;99.90;;;;;;5058069;28;20230;-69
2023/05/11 07:10:08;;;;;;;1.25;1.25;;;10.30;99.90;;;;;;5061787;28;20704;-70
2023/05/11 07:12:36;;;;;;;1.23;1.23;;;10.40;99.90;;;;;;5058464;28;20489;-70
2023/05/11 07:15:03;;;;;;;1.30;1.20;;;10.40;99.90;;;;;;5060184;28;20197;-71
2023/05/11 07:17:30;;;;;;;1.20;1.20;;;10.50;99.90;;;;;;5057459;28;20285;-71
2023/05/11 07:19:57;;;;;;;1.35;1.35;;;10.50;99.90;;;;;;5059732;28;20199;-70
2023/05/11 07:22:24;;;;;;;1.20;1.20;;;10.50;99.90;;;;;;5059243;28;20712;-71
2023/05/11 07:24:50;;;;;;;1.50;1.40;;;10.60;99.90;;;;;;5056094;28;20276;-71
2023/05/11 07:27:19;;;;;;;1.48;1.40;;;10.60;99.90;;;;;;5059201;28;20195;-70
2023/05/11 07:29:46;;;;;;;1.83;1.73;;;10.70;99.90;;;;;;5056692;28;20226;-71
2023/05/11 07:32:13;;;;;;;1.30;1.30;;;10.70;99.90;;;;;;5056838;28;20312;-70
2023/05/11 07:34:40;;;;;;;1.80;1.70;;;10.70;99.90;;;;;;5060154;28;20216;-70
2023/05/11 07:37:08;;;;;;;1.48;1.38;;;10.70;99.90;;;;;;5056085;28;20690;-69
2023/05/11 07:39:35;;;;;;;1.67;1.58;;;10.70;99.90;;;;;;5058740;28;20202;-70
2023/05/11 07:42:02;;;;;;;1.88;1.77;;;10.70;99.90;;;;;;5062087;28;20199;-71
2023/05/11 07:44:31;;;;;;;1.92;1.80;;;10.80;99.90;;;;;;5058185;28;20700;-70
2023/05/11 07:46:57;;;;;;;1.70;1.60;;;10.80;99.90;;;;;;5061234;28;20256;-71
2023/05/11 07:49:24;;;;;;;1.83;1.73;;;10.80;99.90;;;;;;5059853;28;20220;-70
2023/05/11 07:51:52;;;;;;;1.83;1.73;;;10.80;99.90;;;;;;5059988;28;20503;-70
2023/05/11 07:54:19;;;;;;;1.92;1.60;;;10.90;99.90;;;;;;5055994;28;20211;-70
2023/05/11 07:56:45;;;;;;;2.28;2.17;;;10.90;99.90;;;;;;5057074;28;20202;-71
2023/05/11 07:59:12;;;;;;;2.20;1.95;;;10.90;99.90;;;;;;5059720;28;20477;-73
2023/05/11 08:01:41;;;;;;;1.98;1.70;;;10.80;99.90;;;;;;5054830;28;20266;-70
2023/05/11 08:04:08;;;;;;;1.80;1.70;;;10.80;99.90;;;;;;5058273;28;20229;-72
2023/05/11 08:06:35;;;;;;;1.70;1.60;;;10.80;99.90;;;;;;5059864;28;20198;-72
2023/05/11 08:09:02;;;;;;;1.50;1.40;;;10.70;99.90;;;;;;5059089;28;20904;-71
2023/05/11 08:11:29;;;;;;;1.55;1.55;;;10.70;99.90;;;;;;5058973;28;20202;-70
2023/05/11 08:13:56;;;;;;;1.35;1.35;;;10.70;99.90;;;;;;5058661;28;20263;-73
2023/05/11 08:16:23;;;;;;;1.50;1.50;;;10.70;99.90;;;;;;5057246;28;20469;-70
2023/05/11 08:18:51;;;;;;;1.33;1.33;;;10.70;99.90;;;;;;5056413;28;20198;-73
2023/05/11 08:21:18;;;;;;;1.60;1.50;;;10.70;99.90;;;;;;5056777;28;20252;-71
2023/05/11 08:23:45;;;;;;;1.30;1.30;;;10.80;99.90;;;;;;5057757;28;20317;-70
2023/05/11 08:26:12;;;;;;;1.35;1.35;;;10.80;99.90;;;;;;5055741;28;20209;-72
2023/05/11 08:28:39;;;;;;;1.70;1.60;;;10.90;99.90;;;;;;5060759;28;20234;-71
2023/05/11 08:31:06;;;;;;;1.48;1.38;;;10.90;99.90;;;;;;5060227;28;20233;-73
2023/05/11 08:33:33;;;;;;;1.42;1.38;;;10.80;99.90;;;;;;5057808;28;20908;-72
2023/05/11 08:36:02;;;;;;;1.50;1.50;;;10.80;99.90;;;;;;5058305;28;20284;-72
2023/05/11 08:38:29;;;;;;;2.95;1.90;;;10.80;99.90;;;;;;5060497;28;20190;-71
2023/05/11 08:40:56;;;;;;;1.70;1.60;;;10.80;99.90;;;;;;5063207;28;20206;-71
2023/05/11 08:43:28;;;;;;;1.60;1.60;;;10.80;99.90;;;;;;5059918;28;20307;-71
2023/05/11 08:46:00;;;;;;;1.98;1.30;;;10.80;99.90;;;;;;5061549;28;20298;-72
2023/05/11 08:48:27;;;;;;;1.50;1.50;;;10.80;99.90;;;;;;5064143;28;20215;-72
2023/05/11 08:50:54;;;;;;;1.80;1.70;;;10.90;99.90;;;;;;5071145;28;20680;-72
2023/05/11 08:53:23;;;;;;;1.40;1.40;;;10.90;99.90;;;;;;5069821;28;20236;-74
2023/05/11 08:55:51;;;;;;;1.60;1.50;;;10.90;99.90;;;;;;5073412;28;20635;-70
2023/05/11 08:58:21;;;;;;;1.48;1.48;;;11.00;99.90;;;;;;5064665;28;20205;-71
2023/05/11 09:00:49;;;;;;;1.63;1.52;;;10.90;99.90;;;;;;5062253;28;20689;-71
2023/05/11 09:03:17;;;;;;;1.70;1.60;;;10.90;99.90;;;;;;5062963;28;20313;-72
2023/05/11 09:05:46;;;;;;;2.28;1.90;;;10.90;99.90;;;;;;5063965;28;20190;-71
2023/05/11 09:08:14;;;;;;;1.52;1.42;;;10.90;99.90;;;;;;5060200;28;20202;-70
2023/05/11 09:10:43;;;;;;;1.92;1.83;;;11.00;99.90;;;;;;5062323;28;20248;-70
2023/05/11 09:13:10;;;;;;;1.80;1.73;;;10.90;99.90;;;;;;5062587;28;20224;-71
2023/05/11 09:15:38;;;;;;;1.63;1.52;;;11.00;99.90;;;;;;5059381;28;20205;-72
2023/05/11 09:18:05;;;;;;;1.30;1.30;;;11.10;99.90;;;;;;5060090;28;20246;-69
2023/05/11 09:20:33;;;;;;;1.55;1.50;;;11.20;99.90;;;;;;5060139;28;20294;-71
2023/05/11 09:23:00;;;;;;;1.70;1.60;;;11.30;99.90;;;;;;5061196;28;20727;-70
2023/05/11 09:25:33;;;;;;;1.58;1.58;;;11.30;99.90;;;;;;5058319;28;20285;-71
2023/05/11 09:28:02;;;;;;;1.52;1.42;;;11.30;99.90;;;;;;5060061;28;20195;-73
2023/05/11 09:30:29;;;;;;;2.03;1.88;;;11.30;99.90;;;;;;5057691;28;20198;-73
2023/05/11 09:32:58;;;;;;;1.60;1.50;;;11.30;99.90;;;;;;5059681;28;20249;-72
2023/05/11 09:35:27;;;;;;;1.65;1.55;;;11.30;99.90;;;;;;5061674;28;20208;-73
2023/05/11 09:38:03;;;;;;;1.70;1.60;;;11.30;99.90;;;;;;5059896;28;20232;-71
2023/05/11 09:40:30;;;;;;;2.50;1.77;;;11.30;99.90;;;;;;5057373;28;20458;-72
2023/05/11 09:42:57;;;;;;;1.80;1.70;;;11.30;99.90;;;;;;5059468;28;20245;-72
2023/05/11 09:45:40;;;;;;;1.58;1.50;;;11.20;99.90;;;;;;5054059;28;20304;-72
2023/05/11 09:48:13;;;;;;;2.00;1.90;;;11.20;99.90;;;;;;5057078;28;20713;-76
2023/05/11 09:50:40;;;;;;;1.75;1.60;;;11.20;99.90;;;;;;5057716;28;20645;-70
2023/05/11 09:53:07;;;;;;;1.60;1.50;;;11.20;99.90;;;;;;5059946;28;20222;-70
2023/05/11 09:55:34;;;;;;;1.60;1.55;;;11.20;99.90;;;;;;5059725;28;20256;-72
2023/05/11 09:58:01;;;;;;;1.88;1.77;;;11.20;99.90;;;;;;5059081;28;20230;-72
2023/05/11 10:00:28;;;;;;;1.70;1.60;;;11.20;99.90;;;;;;5059804;28;20230;-69
2023/05/11 10:03:04;;;;;;;2.15;1.60;;;11.30;99.90;;;;;;5056355;28;20444;-72
2023/05/11 10:05:33;;;;;;;1.60;1.50;;;11.30;99.90;;;;;;5061671;28;20315;-70
2023/05/11 10:08:02;;;;;;;1.58;1.50;;;11.30;99.90;;;;;;5061076;28;20317;-71
2023/05/11 10:10:31;;;;;;;1.30;1.30;;;11.30;99.90;;;;;;5058782;28;20195;-70
2023/05/11 10:12:59;;;;;;;1.70;1.60;;;11.30;99.90;;;;;;5058083;28;20320;-71
2023/05/11 10:15:27;;;;;;;2.08;1.75;;;11.40;99.90;;;;;;5059777;28;20292;-70
2023/05/11 10:17:56;;;;;;;1.80;1.70;;;11.40;99.90;;;;;;5062151;28;20213;-70
2023/05/11 10:20:25;;;;;;;1.70;1.60;;;11.50;99.90;;;;;;5061915;28;20689;-71
2023/05/11 10:22:54;;;;;;;1.80;1.70;;;11.40;99.90;;;;;;5061331;28;20214;-75
2023/05/11 10:25:22;;;;;;;1.42;1.33;;;11.40;99.90;;;;;;5058214;28;20218;-68
2023/05/11 10:27:50;;;;;;;1.55;1.50;;;11.30;99.90;;;;;;5057731;28;20699;-71
2023/05/11 10:30:17;;;;;;;1.60;1.50;;;11.40;99.90;;;;;;5061757;28;20252;-73
2023/05/11 10:32:45;;;;;;;1.75;1.65;;;11.40;99.90;;;;;;5061992;28;20282;-72
2023/05/11 10:35:13;;;;;;;1.23;1.23;;;11.40;99.90;;;;;;5061315;28;20198;-71
2023/05/11 10:37:42;;;;;;;1.60;1.50;;;11.40;99.90;;;;;;5059774;28;20245;-70
2023/05/11 10:40:10;;;;;;;1.55;1.55;;;11.50;99.90;;;;;;5058319;28;20198;-70
2023/05/11 10:43:10;;;;;;;1.42;1.40;;;11.60;99.90;;;;;;5055767;28;20644;-70
2023/05/11 10:45:46;;;;;;;1.45;1.33;;;11.70;99.90;;;;;;5061993;28;20250;-71
2023/05/11 10:48:48;;;;;;;1.77;1.67;;;11.70;99.90;;;;;;5061173;28;20214;-70
2023/05/11 10:51:34;;;;;;;1.38;1.38;;;11.70;99.90;;;;;;5060381;28;20277;-72
2023/05/11 10:54:29;;;;;;;1.70;1.60;;;11.70;99.90;;;;;;5058994;28;20713;-74
2023/05/11 10:57:12;;;;;;;1.70;1.60;;;11.80;99.90;;;;;;5060066;28;20681;-69
2023/05/11 10:59:56;;;;;;;1.65;1.55;;;11.80;99.90;;;;;;5059094;28;20214;-71
2023/05/11 11:02:30;;;;;;;1.65;1.52;;;11.90;99.90;;;;;;5059625;28;20202;-68
2023/05/11 11:04:59;;;;;;;1.60;1.50;;;12.00;99.90;;;;;;5057219;28;20585;-69
2023/05/11 11:07:27;;;;;;;2.03;1.85;;;12.00;99.90;;;;;;5061018;28;20230;-70
2023/05/11 11:09:58;;;;;;;1.38;1.27;;;12.10;99.90;;;;;;5058104;28;20209;-70
2023/05/11 11:12:26;;;;;;;1.70;1.60;;;12.20;99.90;;;;;;5060143;28;20214;-72
2023/05/11 11:14:55;;;;;;;1.70;1.60;;;12.30;99.90;;;;;;5058725;28;20190;-70
2023/05/11 11:17:24;;;;;;;1.58;1.48;;;12.30;99.90;;;;;;5058818;28;20249;-70
2023/05/11 11:19:51;;;;;;;1.65;1.55;;;12.30;99.90;;;;;;5059923;28;20594;-71
2023/05/11 11:22:49;;;;;;;1.65;1.55;;;12.40;99.90;;;;;;5057422;28;20339;-73
2023/05/11 11:25:53;;;;;;;1.60;1.50;;;12.50;99.90;;;;;;5057573;28;20248;-71
2023/05/11 11:28:20;;;;;;;2.63;1.55;;;12.60;99.90;;;;;;5058703;28;20926;-71
2023/05/11 11:30:47;;;;;;;1.30;1.30;;;12.70;99.90;;;;;;5056605;28;20279;-70
2023/05/11 11:33:41;;;;;;;1.50;1.40;;;12.80;99.90;;;;;;5056949;28;20314;-71
2023/05/11 11:36:08;;;;;;;1.30;1.20;;;12.80;99.90;;;;;;5005025;28;20684;-72
2023/05/11 11:38:59;;;;;;;1.70;1.60;;;12.90;99.90;;;;;;5057500;28;20202;-73
2023/05/11 11:41:32;;;;;;;1.35;1.35;;;13.00;99.90;;;;;;5056252;28;20420;-70
2023/05/11 11:43:59;;;;;;;1.58;1.50;;;13.10;99.90;;;;;;5057854;28;20635;-70
2023/05/11 11:46:28;;;;;;;1.50;1.40;;;13.10;99.90;;;;;;5056634;28;20199;-71
2023/05/11 11:49:08;;;;;;;5.28;1.65;;;13.10;99.90;;;;;;5056570;28;20202;-71
2023/05/11 11:51:38;;;;;;;1.38;1.27;;;13.20;99.90;;;;;;5058413;28;20694;-71
2023/05/11 11:54:06;;;;;;;1.40;1.30;;;13.20;99.90;;;;;;5057926;28;20229;-70
2023/05/11 11:56:44;;;;;;;2.92;1.25;;;13.20;99.90;;;;;;5057057;28;20665;-71
2023/05/11 11:59:13;;;;;;;2.78;1.42;;;13.40;99.90;;;;;;5058089;28;20198;-71
2023/05/11 12:01:41;;;;;;;1.60;1.50;;;13.50;99.90;;;;;;5058390;28;20256;-71
2023/05/11 12:04:53;;;;;;;1.58;1.13;;;13.50;99.90;;;;;;5052495;28;20226;-72
2023/05/11 12:07:21;;;;;;;1.52;1.42;;;13.50;99.90;;;;;;5058346;28;20678;-71
2023/05/11 12:09:48;;;;;;;1.33;1.33;;;13.50;99.90;;;;;;5056528;28;20259;-73
2023/05/11 12:12:19;;;;;;;1.50;1.40;;;13.50;99.90;;;;;;5056432;28;20226;-71
2023/05/11 12:14:48;;;;;;;1.52;1.42;;;13.50;99.90;;;;;;5056545;28;20289;-70
2023/05/11 12:17:23;;;;;;;1.50;1.40;;;13.50;99.90;;;;;;5057124;28;20221;-71
2023/05/11 12:19:49;;;;;;;1.30;1.30;;;13.40;99.90;;;;;;5055705;28;20490;-71
2023/05/11 12:22:22;;;;;;;1.08;1.05;;;13.40;99.90;;;;;;5055106;28;20576;-71
2023/05/11 12:24:49;;;;;;;1.27;1.20;;;13.50;99.90;;;;;;5059448;28;20237;-71
2023/05/11 12:27:18;;;;;;;1.48;1.38;;;13.60;99.90;;;;;;5058389;28;20285;-72
2023/05/11 12:29:49;;;;;;;1.10;1.10;;;13.70;99.90;;;;;;5059629;28;20932;-73
2023/05/11 12:32:24;;;;;;;1.10;1.10;;;13.80;99.90;;;;;;5060189;28;20285;-72
2023/05/11 12:34:58;;;;;;;1.23;1.13;;;14.00;99.90;;;;;;5060772;28;20229;-72
2023/05/11 12:37:25;;;;;;;1.60;1.50;;;14.00;99.90;;;;;;5056217;28;20379;-70
2023/05/11 12:39:55;;;;;;;1.08;1.08;;;14.00;99.90;;;;;;5056004;28;20708;-71
2023/05/11 12:42:23;;;;;;;1.02;1.02;;;14.00;99.90;;;;;;5057094;28;20206;-72
2023/05/11 12:44:51;;;;;;;1.15;1.05;;;13.90;99.90;;;;;;5053141;28;20216;-69
2023/05/11 12:47:18;;;;;;;1.98;1.00;;;13.90;99.90;;;;;;5055961;28;20210;-70
2023/05/11 12:49:46;;;;;;;1.33;1.23;;;14.00;99.90;;;;;;5056497;28;20229;-71
2023/05/11 12:52:13;;;;;;;1.00;1.00;;;14.00;99.90;;;;;;5052499;28;20230;-71
2023/05/11 12:54:49;;;;;;;1.10;1.10;;;14.10;99.90;;;;;;5054421;28;20253;-72
2023/05/11 12:57:25;;;;;;;1.75;1.30;;;14.20;99.90;;;;;;5053439;28;20209;-70
2023/05/11 13:00:08;;;;;;;1.08;1.08;;;14.30;99.90;;;;;;5059375;28;20320;-71